Time;durP1;ratioP1;P1;durP2;ratioP2;P2;SDS_P1;SDS_P2;PMS_P1;PMS_P2;Temp;Humidity;BMP_temperature;BMP_pressure;BME280_temperature;BME280_humidity;BME280_pressure;Samples;Min_cycle;Max_cycle;Signal;HPM_P1;HPM_P2
2021/01/02 00:01:18;;;;;;;11.95;6.30;;;;;;;3.77;77.16;100593.91;1780804;80;21145;-74
2021/01/02 00:04:06;;;;;;;11.60;6.35;;;;;;;3.82;77.16;100598.55;1769311;78;21600;-74
2021/01/02 00:06:44;;;;;;;11.40;5.70;;;;;;;3.83;77.18;100606.27;1773454;78;21141;-73
2021/01/02 00:09:16;;;;;;;8.53;5.42;;;;;;;3.83;77.17;100608.11;1774682;78;21188;-74
2021/01/02 00:12:22;;;;;;;8.53;5.67;;;;;;;3.80;77.21;100605.38;1763636;80;21476;-72
2021/01/02 00:15:08;;;;;;;9.15;5.33;;;;;;;3.80;77.23;100602.73;1780577;78;21179;-73
2021/01/02 00:18:10;;;;;;;9.13;5.53;;;;;;;3.81;76.78;100615.42;1726815;80;21267;-74
2021/01/02 00:20:55;;;;;;;9.88;6.08;;;;;;;3.78;76.26;100621.94;1770412;80;21228;-73
2021/01/02 00:23:34;;;;;;;10.13;5.70;;;;;;;3.76;75.63;100625.31;1770975;78;21172;-73
2021/01/02 00:26:15;;;;;;;10.68;6.35;;;;;;;3.76;75.15;100637.20;1769458;80;21540;-73
2021/01/02 00:28:44;;;;;;;10.32;5.80;;;;;;;3.74;74.89;100632.63;1720745;81;21268;-73
2021/01/02 00:31:37;;;;;;;8.83;5.78;;;;;;;3.72;75.03;100639.97;1711111;81;21129;-73
2021/01/02 00:34:20;;;;;;;9.30;6.00;;;;;;;3.71;75.01;100638.33;1726558;81;21228;-73
2021/01/02 00:37:10;;;;;;;8.73;5.17;;;;;;;3.70;75.09;100651.24;1731343;80;21145;-73
2021/01/02 00:40:08;;;;;;;8.88;5.25;;;;;;;3.69;74.91;100661.52;1700466;82;21620;-73
2021/01/02 00:42:40;;;;;;;7.97;5.20;;;;;;;3.66;75.01;100656.14;1686371;83;21162;-73
2021/01/02 00:45:12;;;;;;;9.38;5.60;;;;;;;3.66;75.01;100660.61;1688075;83;21217;-73
2021/01/02 00:47:41;;;;;;;9.03;5.03;;;;;;;3.66;74.76;100664.58;1688338;83;21149;-73
2021/01/02 00:50:14;;;;;;;10.35;5.60;;;;;;;3.62;73.70;100666.83;1686088;83;21506;-73
2021/01/02 00:53:13;;;;;;;7.58;4.90;;;;;;;3.61;73.42;100662.54;1739573;81;21387;-73
2021/01/02 00:55:51;;;;;;;9.33;5.53;;;;;;;3.63;73.04;100676.88;1728976;81;21154;-72
2021/01/02 00:59:00;;;;;;;9.08;5.08;;;;;;;3.63;72.25;100667.63;1737953;81;21158;-73
2021/01/02 01:01:40;;;;;;;7.83;4.70;;;;;;;3.63;72.17;100671.08;1745439;81;21180;-73
2021/01/02 01:04:22;;;;;;;8.93;5.30;;;;;;;3.61;71.94;100677.06;1739089;81;21137;-73
2021/01/02 01:06:53;;;;;;;8.75;4.85;;;;;;;3.59;72.07;100679.12;1737056;81;22160;-73
2021/01/02 01:09:25;;;;;;;7.17;4.50;;;;;;;3.58;72.33;100678.80;1684104;83;21178;-74
2021/01/02 01:11:55;;;;;;;8.63;5.00;;;;;;;3.60;72.29;100682.57;1740292;81;21212;-73
2021/01/02 01:14:22;;;;;;;8.95;5.08;;;;;;;3.59;72.51;100679.12;1738448;81;21180;-72
2021/01/02 01:16:55;;;;;;;8.70;5.33;;;;;;;3.61;72.68;100689.47;1745236;81;21722;-73
2021/01/02 01:19:28;;;;;;;8.45;5.35;;;;;;;3.57;72.01;100689.59;1696703;82;21446;-73
2021/01/02 01:21:58;;;;;;;9.50;5.50;;;;;;;3.51;72.17;100683.30;1691331;82;21161;-73
2021/01/02 01:24:48;;;;;;;8.05;4.90;;;;;;;3.48;72.25;100687.16;1739955;81;21676;-73
2021/01/02 01:27:54;;;;;;;8.30;5.15;;;;;;;3.44;72.47;100681.99;1737786;81;21899;-73
2021/01/02 01:30:22;;;;;;;9.98;5.05;;;;;;;3.43;72.76;100686.98;1740798;81;21161;-73
2021/01/02 01:33:04;;;;;;;8.10;5.22;;;;;;;3.42;73.15;100689.33;1739052;81;21190;-73
2021/01/02 01:35:34;;;;;;;9.15;4.92;;;;;;;3.40;73.45;100701.11;1746048;81;21142;-72
2021/01/02 01:38:02;;;;;;;9.05;5.25;;;;;;;3.36;73.64;100711.27;1716737;81;21229;-73
2021/01/02 01:40:31;;;;;;;9.55;5.35;;;;;;;3.32;73.82;100710.03;1716177;80;21560;-73
2021/01/02 01:43:05;;;;;;;8.88;5.17;;;;;;;3.31;73.87;100711.57;1741163;81;21129;-74
2021/01/02 01:45:42;;;;;;;8.83;5.05;;;;;;;3.29;73.85;100713.92;1744728;80;21207;-73
2021/01/02 01:48:17;;;;;;;8.15;4.75;;;;;;;3.27;73.80;100713.81;1743229;80;21201;-73
2021/01/02 01:51:11;;;;;;;8.70;5.17;;;;;;;3.26;73.67;100718.28;1740645;81;21114;-73
2021/01/02 01:54:00;;;;;;;9.10;4.45;;;;;;;3.24;73.58;100720.30;1737508;81;21308;-74
2021/01/02 01:56:31;;;;;;;8.40;5.35;;;;;;;3.19;73.56;100724.08;1692291;84;21204;-74
2021/01/02 01:59:22;;;;;;;8.95;5.22;;;;;;;3.13;73.51;100727.53;1740579;81;21672;-73
2021/01/02 02:01:55;;;;;;;8.45;5.25;;;;;;;3.08;73.47;100731.27;1744351;81;21117;-73
2021/01/02 02:04:53;;;;;;;8.38;4.90;;;;;;;3.05;73.49;100744.88;1686083;84;21222;-73
2021/01/02 02:07:21;;;;;;;8.60;5.15;;;;;;;2.98;73.30;100751.98;1695161;84;21166;-74
2021/01/02 02:10:00;;;;;;;7.65;4.65;;;;;;;2.93;73.45;100753.91;1679983;81;21205;-73
2021/01/02 02:12:33;;;;;;;7.28;4.50;;;;;;;2.89;73.45;100751.34;1738612;81;22189;-74
2021/01/02 02:15:06;;;;;;;8.20;5.03;;;;;;;2.86;73.43;100759.66;1742144;81;21482;-74
2021/01/02 02:17:42;;;;;;;8.03;5.10;;;;;;;2.84;73.47;100759.07;1739118;81;21181;-74
2021/01/02 02:20:17;;;;;;;8.93;5.65;;;;;;;2.82;73.42;100765.85;1687405;84;21253;-73
2021/01/02 02:22:45;;;;;;;8.27;4.83;;;;;;;2.80;73.48;100761.81;1620269;80;10000355;-73
2021/01/02 02:25:15;;;;;;;8.63;5.20;;;;;;;2.76;73.41;100778.55;1681036;84;21237;-74
2021/01/02 02:27:44;;;;;;;9.00;4.97;;;;;;;2.76;73.36;100781.66;1736016;82;21240;-75
2021/01/02 02:30:17;;;;;;;9.50;4.90;;;;;;;2.76;73.39;100786.94;1749221;80;21261;-75
2021/01/02 02:32:47;;;;;;;8.05;4.50;;;;;;;2.76;72.89;100789.58;1725428;81;21184;-74
2021/01/02 02:35:21;;;;;;;8.08;4.87;;;;;;;2.72;72.99;100798.91;1745364;81;21391;-74
2021/01/02 02:37:52;;;;;;;7.97;4.72;;;;;;;2.68;72.97;100793.73;1736534;81;21185;-73
2021/01/02 02:40:21;;;;;;;10.55;6.15;;;;;;;2.64;72.93;100803.06;1735938;81;21205;-73
2021/01/02 02:43:01;;;;;;;8.80;5.58;;;;;;;2.61;72.92;100800.81;1739561;81;21195;-73
2021/01/02 02:45:30;;;;;;;10.35;5.40;;;;;;;2.56;72.67;100807.47;1739611;80;21740;-74
2021/01/02 02:48:03;;;;;;;10.23;6.22;;;;;;;2.56;72.62;100811.94;1737764;80;21384;-74
2021/01/02 02:50:31;;;;;;;11.45;6.37;;;;;;;2.55;72.58;100816.41;1745448;81;21501;-73
2021/01/02 02:53:05;;;;;;;10.00;5.75;;;;;;;2.49;72.29;100810.59;1691228;84;21205;-72
2021/01/02 02:55:40;;;;;;;9.70;5.80;;;;;;;2.45;71.98;100821.23;1692630;84;21214;-71
2021/01/02 02:58:07;;;;;;;8.85;5.80;;;;;;;2.35;71.98;100816.33;1737888;81;21188;-75
2021/01/02 03:00:36;;;;;;;11.25;6.65;;;;;;;2.31;72.28;100822.20;1740937;81;21193;-75
2021/01/02 03:03:04;;;;;;;11.45;7.12;;;;;;;2.29;72.33;100821.57;1741762;80;21217;-75
2021/01/02 03:05:32;;;;;;;10.65;6.17;;;;;;;2.31;72.45;100822.20;1736792;81;21664;-74
2021/01/02 03:08:00;;;;;;;10.45;6.12;;;;;;;2.30;72.53;100829.78;1737950;81;21699;-75
2021/01/02 03:10:29;;;;;;;9.65;5.97;;;;;;;2.30;72.46;100837.20;1737426;81;21226;-76
2021/01/02 03:12:56;;;;;;;12.15;6.67;;;;;;;2.31;72.45;100831.42;1743063;81;22281;-75
2021/01/02 03:15:30;;;;;;;9.35;6.15;;;;;;;2.28;72.48;100841.04;1678419;84;21233;-75
2021/01/02 03:17:57;;;;;;;8.95;6.10;;;;;;;2.29;72.62;100851.88;1737432;81;21193;-75
2021/01/02 03:20:25;;;;;;;9.68;5.87;;;;;;;2.28;72.64;100851.08;1743591;81;21173;-75
2021/01/02 03:22:53;;;;;;;10.53;6.60;;;;;;;2.27;72.75;100847.30;1621197;80;9999831;-75
2021/01/02 03:25:20;;;;;;;11.15;6.40;;;;;;;2.30;72.85;100857.45;1743230;80;21220;-74
2021/01/02 03:27:54;;;;;;;9.45;5.90;;;;;;;2.31;72.94;100858.59;1737838;81;21158;-77
2021/01/02 03:30:22;;;;;;;11.50;6.45;;;;;;;2.35;73.03;100857.19;1736280;81;21685;-76
2021/01/02 03:32:51;;;;;;;10.00;6.10;;;;;;;2.38;73.05;100859.14;1740613;81;21173;-76
2021/01/02 03:35:18;;;;;;;9.88;6.28;;;;;;;2.39;73.07;100864.20;1737307;81;21249;-75
2021/01/02 03:37:47;;;;;;;9.23;6.30;;;;;;;2.40;73.11;100863.69;1735830;81;21212;-76
2021/01/02 03:40:17;;;;;;;7.90;5.28;;;;;;;2.40;73.15;100863.69;1736238;81;21744;-76
2021/01/02 03:42:46;;;;;;;11.30;7.03;;;;;;;2.44;73.21;100862.31;1741843;81;21380;-76
2021/01/02 03:45:16;;;;;;;8.28;5.47;;;;;;;2.46;73.26;100858.95;1735628;81;22266;-75
2021/01/02 03:47:48;;;;;;;9.18;5.97;;;;;;;2.49;73.34;100856.73;1736118;81;21874;-75
2021/01/02 03:50:16;;;;;;;9.90;5.78;;;;;;;2.49;73.32;100847.51;1735942;82;21230;-76
2021/01/02 03:52:44;;;;;;;9.10;5.58;;;;;;;2.49;73.14;100863.84;1739776;81;21229;-75
2021/01/02 03:55:13;;;;;;;8.75;5.95;;;;;;;2.47;73.21;100869.80;1743693;81;21485;-75
2021/01/02 03:57:41;;;;;;;9.18;5.30;;;;;;;2.44;73.29;100874.98;1687085;82;21695;-74
2021/01/02 04:00:11;;;;;;;8.10;5.25;;;;;;;2.44;73.32;100875.49;1715404;82;22317;-74
2021/01/02 04:02:39;;;;;;;9.55;5.83;;;;;;;2.43;73.40;100875.97;1738261;81;21185;-74
2021/01/02 04:05:09;;;;;;;8.50;5.53;;;;;;;2.41;73.48;100891.19;1738817;81;21181;-75
2021/01/02 04:07:36;;;;;;;8.30;5.08;;;;;;;2.38;73.58;100892.89;1755481;81;21216;-75
2021/01/02 04:10:08;;;;;;;9.85;6.08;;;;;;;2.38;73.75;100890.26;1670735;84;21253;-74
2021/01/02 04:12:36;;;;;;;7.90;5.17;;;;;;;2.35;73.83;100900.68;1681550;84;22316;-74
2021/01/02 04:15:06;;;;;;;9.10;5.40;;;;;;;2.35;73.96;100899.88;1678537;83;21241;-74
2021/01/02 04:17:34;;;;;;;9.15;5.20;;;;;;;2.37;74.12;100902.30;1737741;81;21197;-74
2021/01/02 04:20:04;;;;;;;9.73;6.37;;;;;;;2.37;74.16;100899.66;1676894;84;21201;-74
2021/01/02 04:22:32;;;;;;;8.38;5.03;;;;;;;2.37;74.29;100906.25;1621359;80;10000046;-74
2021/01/02 04:25:00;;;;;;;8.55;5.70;;;;;;;2.33;74.36;100900.56;1739687;81;21057;-74
2021/01/02 04:27:31;;;;;;;8.60;6.00;;;;;;;2.34;74.43;100912.75;1742524;81;21205;-74
2021/01/02 04:29:58;;;;;;;8.95;5.65;;;;;;;2.30;74.45;100910.17;1747770;81;21184;-75
2021/01/02 04:32:26;;;;;;;9.33;5.92;;;;;;;2.23;74.38;100921.98;1735849;81;21244;-74
2021/01/02 04:34:54;;;;;;;9.50;6.05;;;;;;;2.12;74.44;100921.22;1742166;81;21684;-74
2021/01/02 04:37:28;;;;;;;8.00;5.20;;;;;;;2.04;74.43;100930.56;1745173;81;21197;-73
2021/01/02 04:39:57;;;;;;;9.95;5.72;;;;;;;1.98;74.55;100932.17;1736292;81;21193;-76
2021/01/02 04:42:24;;;;;;;8.93;5.37;;;;;;;1.92;74.66;100947.92;1617005;80;10000010;-74
2021/01/02 04:44:52;;;;;;;7.55;5.08;;;;;;;1.84;74.82;100958.91;1743994;80;21386;-73
2021/01/02 04:47:20;;;;;;;8.78;5.45;;;;;;;1.80;75.01;100952.88;1746877;81;21202;-73
2021/01/02 04:49:49;;;;;;;9.03;5.50;;;;;;;1.78;75.16;100960.17;1742195;81;21600;-73
2021/01/02 04:52:17;;;;;;;7.87;5.30;;;;;;;1.78;75.29;100964.12;1738135;80;21174;-73
2021/01/02 04:54:51;;;;;;;8.28;5.22;;;;;;;1.74;75.41;100966.28;1741279;81;21724;-73
2021/01/02 04:57:19;;;;;;;8.98;5.78;;;;;;;1.73;75.50;100967.80;1741090;81;21859;-74
2021/01/02 04:59:50;;;;;;;10.65;6.15;;;;;;;1.73;75.61;100965.17;1737363;80;21260;-73
2021/01/02 05:02:20;;;;;;;8.00;5.20;;;;;;;1.74;75.72;100970.74;1738405;81;21527;-75
2021/01/02 05:04:49;;;;;;;9.05;5.85;;;;;;;1.73;75.74;100976.52;1738705;80;21725;-73
2021/01/02 05:07:29;;;;;;;8.53;5.55;;;;;;;1.70;75.86;100980.84;1738796;81;21141;-74
2021/01/02 05:09:57;;;;;;;10.30;6.28;;;;;;;1.67;75.97;100985.16;1736942;81;21383;-72
2021/01/02 05:12:29;;;;;;;8.70;5.47;;;;;;;1.64;76.01;100982.39;1737295;81;21200;-73
2021/01/02 05:15:04;;;;;;;10.50;6.78;;;;;;;1.62;76.13;100996.27;1738030;81;21138;-73
2021/01/02 05:17:31;;;;;;;8.68;5.83;;;;;;;1.57;76.16;100999.14;1744125;80;21676;-73
2021/01/02 05:20:11;;;;;;;9.58;5.90;;;;;;;1.53;76.25;101003.97;1681858;84;21257;-73
2021/01/02 05:22:41;;;;;;;9.13;5.95;;;;;;;1.47;76.38;101001.27;1733349;81;22268;-73
2021/01/02 05:25:18;;;;;;;9.35;6.20;;;;;;;1.41;76.44;101008.08;1745523;81;21154;-72
2021/01/02 05:27:50;;;;;;;10.63;6.05;;;;;;;1.33;76.57;101005.06;1745921;81;21241;-73
2021/01/02 05:30:26;;;;;;;12.28;7.10;;;;;;;1.24;76.70;101010.11;1697657;84;21189;-73
2021/01/02 05:33:09;;;;;;;10.90;7.03;;;;;;;1.13;76.83;101012.72;1754111;81;21221;-73
2021/01/02 05:35:47;;;;;;;10.45;6.47;;;;;;;1.06;76.89;101023.67;1741565;81;21206;-73
2021/01/02 05:38:22;;;;;;;10.25;6.70;;;;;;;0.99;77.08;101033.77;1737049;81;22308;-73
2021/01/02 05:40:56;;;;;;;11.18;6.53;;;;;;;0.91;77.20;101036.81;1736408;81;21236;-72
2021/01/02 05:43:26;;;;;;;12.13;7.05;;;;;;;0.87;77.42;101041.31;1737301;81;22223;-72
2021/01/02 05:45:56;;;;;;;11.95;7.53;;;;;;;0.79;77.50;101053.22;1741561;81;21196;-73
2021/01/02 05:48:28;;;;;;;11.38;7.10;;;;;;;0.73;77.71;101058.72;1745179;81;21389;-75
2021/01/02 05:50:59;;;;;;;13.63;7.50;;;;;;;0.64;77.76;101069.80;1736990;81;21252;-72
2021/01/02 05:53:32;;;;;;;10.58;6.20;;;;;;;0.64;77.76;101069.80;1738291;81;21734;-73
2021/01/02 05:56:11;;;;;;;12.88;7.65;;;;;;;0.61;78.18;101071.47;1740875;81;21178;-73
2021/01/02 05:58:44;;;;;;;13.75;7.95;;;;;;;0.60;78.32;101071.66;1741126;81;21439;-73
2021/01/02 06:01:17;;;;;;;12.93;7.55;;;;;;;0.60;78.45;101072.98;1736657;81;22307;-73
2021/01/02 06:03:47;;;;;;;12.00;7.60;;;;;;;0.60;78.58;101079.05;1738500;81;21027;-73
2021/01/02 06:06:19;;;;;;;14.43;8.73;;;;;;;0.64;78.65;101086.89;1738995;80;21185;-73
2021/01/02 06:08:51;;;;;;;13.55;7.15;;;;;;;0.67;78.71;101091.79;1747344;81;21174;-73
2021/01/02 06:11:22;;;;;;;13.60;7.97;;;;;;;0.72;78.77;101086.48;1735940;81;21659;-73
2021/01/02 06:13:52;;;;;;;13.22;8.00;;;;;;;0.77;78.77;101094.66;1742693;81;21366;-73
2021/01/02 06:16:20;;;;;;;12.07;7.50;;;;;;;0.82;78.76;101093.11;1688266;84;21624;-74
2021/01/02 06:18:49;;;;;;;12.28;7.50;;;;;;;0.87;78.71;101104.42;1676258;84;21055;-73
2021/01/02 06:21:18;;;;;;;13.10;7.72;;;;;;;0.90;78.63;101100.12;1740316;80;21161;-73
2021/01/02 06:23:47;;;;;;;12.13;7.65;;;;;;;0.93;78.60;101105.03;1739212;81;21128;-72
2021/01/02 06:26:15;;;;;;;11.60;6.80;;;;;;;0.98;78.56;101107.10;1742628;81;22291;-73
2021/01/02 06:28:45;;;;;;;13.65;8.05;;;;;;;1.04;78.55;101116.41;1738819;80;21184;-74
2021/01/02 06:31:17;;;;;;;12.43;7.42;;;;;;;1.05;78.49;101114.09;1737469;82;21201;-73
2021/01/02 06:33:48;;;;;;;12.13;7.72;;;;;;;1.12;78.49;101124.73;1740142;80;28667;-74
2021/01/02 06:36:36;;;;;;;12.50;7.85;;;;;;;1.12;78.49;101124.73;1746489;80;21448;-73
2021/01/02 06:39:26;;;;;;;10.88;7.37;;;;;;;1.13;78.11;101123.22;1744482;81;21557;-74
2021/01/02 06:41:57;;;;;;;13.08;8.03;;;;;;;1.16;78.03;101126.00;1738562;81;21589;-74
2021/01/02 06:44:45;;;;;;;12.00;8.18;;;;;;;1.18;77.73;101130.56;1742245;81;21133;-74
2021/01/02 06:47:25;;;;;;;12.40;7.80;;;;;;;1.20;77.71;101130.40;1739107;81;21177;-74
2021/01/02 06:49:53;;;;;;;12.07;8.00;;;;;;;1.23;77.74;101133.98;1738962;81;21490;-73
2021/01/02 06:52:33;;;;;;;12.33;7.15;;;;;;;1.25;77.55;101137.23;1743012;81;21821;-73
2021/01/02 06:55:23;;;;;;;13.48;7.62;;;;;;;1.25;77.63;101137.23;1748056;81;21184;-73
2021/01/02 06:57:54;;;;;;;15.72;8.65;;;;;;;1.28;77.54;101148.20;1746383;80;21134;-73
2021/01/02 07:00:26;;;;;;;12.35;7.67;;;;;;;1.28;77.52;101152.16;1740844;81;21165;-73
2021/01/02 07:02:55;;;;;;;12.95;8.50;;;;;;;1.30;77.41;101153.31;1739334;81;21256;-73
2021/01/02 07:05:47;;;;;;;14.10;8.75;;;;;;;1.31;77.48;101156.25;1741230;81;22596;-73
2021/01/02 07:08:41;;;;;;;13.18;8.03;;;;;;;1.35;77.43;101150.46;1739316;81;21249;-72
2021/01/02 07:11:45;;;;;;;13.70;8.98;;;;;;;1.43;77.30;101168.47;1746198;81;21066;-73
2021/01/02 07:14:21;;;;;;;14.45;8.73;;;;;;;1.46;77.20;101164.16;1738780;81;21065;-73
2021/01/02 07:17:10;;;;;;;12.40;8.43;;;;;;;1.46;77.05;101190.48;1739349;81;21197;-72
2021/01/02 07:19:48;;;;;;;13.35;8.10;;;;;;;1.40;77.08;101182.80;1742039;81;21872;-74
2021/01/02 07:22:21;;;;;;;13.05;8.53;;;;;;;1.37;77.16;101188.43;1739267;81;21134;-74
2021/01/02 07:27:39;;;;;;;17.23;9.77;;;;;;;1.44;77.35;101188.52;1911423;74;23262;-73
2021/01/02 07:30:13;;;;;;;14.03;9.53;;;;;;;1.45;77.42;101194.09;1804339;77;21037;-73
2021/01/02 07:32:44;;;;;;;14.70;9.30;;;;;;;1.47;77.39;101192.92;1800399;78;21367;-73
2021/01/02 07:35:14;;;;;;;15.40;9.10;;;;;;;1.54;77.33;101192.52;1788815;80;21124;-72
2021/01/02 07:37:47;;;;;;;14.00;9.23;;;;;;;1.64;77.35;101198.31;1793934;78;21632;-74
2021/01/02 07:40:17;;;;;;;15.28;9.68;;;;;;;1.73;77.21;101198.23;1802239;78;21049;-73
2021/01/02 07:42:54;;;;;;;13.75;9.03;;;;;;;1.78;77.12;101201.16;1789942;78;21120;-73
2021/01/02 07:45:26;;;;;;;13.03;8.85;;;;;;;1.86;77.07;101208.44;1840910;77;21569;-73
2021/01/02 07:47:57;;;;;;;13.95;8.73;;;;;;;1.93;77.02;101209.84;1786061;78;21131;-74
2021/01/02 07:50:28;;;;;;;13.10;8.13;;;;;;;2.00;76.88;101205.45;1806043;77;21198;-73
2021/01/02 07:53:02;;;;;;;14.38;9.15;;;;;;;2.02;76.59;101208.73;1798829;78;21564;-73
2021/01/02 07:55:32;;;;;;;13.18;8.28;;;;;;;2.03;76.55;101214.81;1810560;77;21092;-74
2021/01/02 07:58:00;;;;;;;14.10;8.50;;;;;;;2.06;76.41;101213.95;1806797;77;21243;-74
2021/01/02 08:00:28;;;;;;;13.30;8.58;;;;;;;2.09;76.28;101216.22;1813161;77;21153;-73
2021/01/02 08:03:04;;;;;;;12.63;8.00;;;;;;;2.13;76.12;101221.12;1809723;77;21080;-73
2021/01/02 08:05:32;;;;;;;13.15;8.58;;;;;;;2.14;75.99;101224.06;1802563;77;21145;-73
2021/01/02 08:08:01;;;;;;;13.38;8.85;;;;;;;2.14;75.94;101230.65;1807157;77;21203;-73
2021/01/02 08:10:30;;;;;;;14.90;9.53;;;;;;;2.16;76.02;101229.47;1793635;78;21442;-73
2021/01/02 08:13:00;;;;;;;13.10;8.25;;;;;;;2.23;75.83;101240.09;1807378;78;21116;-73
2021/01/02 08:15:32;;;;;;;10.32;7.58;;;;;;;2.27;75.59;101242.66;1800214;78;21140;-71
2021/01/02 08:18:05;;;;;;;13.88;8.45;;;;;;;2.25;75.61;101249.45;1793357;78;21192;-72
2021/01/02 08:20:33;;;;;;;14.45;8.00;;;;;;;2.27;75.58;101247.94;1799108;78;21103;-72
2021/01/02 08:23:09;;;;;;;13.98;8.28;;;;;;;2.30;75.55;101251.05;1793211;78;21810;-73
2021/01/02 08:25:37;;;;;;;12.85;7.65;;;;;;;2.32;75.45;101254.80;1794626;78;21164;-72
2021/01/02 08:28:05;;;;;;;12.88;8.25;;;;;;;2.36;75.52;101258.69;1809659;78;21569;-74
2021/01/02 08:30:33;;;;;;;12.30;8.38;;;;;;;2.43;75.59;101257.45;1781515;79;21239;-79
2021/01/02 08:33:01;;;;;;;12.95;8.83;;;;;;;2.51;75.54;101252.08;1777944;79;21540;-74
2021/01/02 08:35:35;;;;;;;12.37;8.28;;;;;;;2.58;75.53;101249.00;1783487;80;22089;-74
2021/01/02 08:38:09;;;;;;;13.25;8.10;;;;;;;2.71;75.50;101256.23;1778037;80;21228;-74
2021/01/02 08:40:47;;;;;;;11.50;8.25;;;;;;;2.80;75.16;101257.25;1777858;79;21100;-74
2021/01/02 08:43:25;;;;;;;14.83;8.93;;;;;;;2.91;74.96;101268.30;1768226;80;21117;-74
2021/01/02 08:46:03;;;;;;;13.88;8.35;;;;;;;2.92;74.61;101269.92;1781766;80;21769;-76
2021/01/02 08:48:31;;;;;;;13.18;7.92;;;;;;;2.95;74.38;101273.00;1778169;79;21380;-73
2021/01/02 08:50:59;;;;;;;14.23;8.28;;;;;;;2.95;74.38;101262.45;1776738;79;21139;-74
2021/01/02 08:53:29;;;;;;;14.45;8.70;;;;;;;3.01;74.39;101261.69;1784489;78;21544;-74
2021/01/02 08:55:57;;;;;;;12.90;7.50;;;;;;;3.09;74.35;101259.41;1772802;80;21275;-75
2021/01/02 08:58:35;;;;;;;15.35;9.20;;;;;;;3.16;74.06;101261.63;1783501;79;21171;-74
2021/01/02 09:01:04;;;;;;;12.33;8.08;;;;;;;3.25;74.11;101253.05;1802063;78;21607;-74
2021/01/02 09:03:33;;;;;;;13.15;8.33;;;;;;;3.35;73.92;101265.41;1783054;79;21131;-73
2021/01/02 09:06:25;;;;;;;12.37;7.28;;;;;;;3.40;73.52;101261.70;1768140;79;21246;-74
2021/01/02 09:09:06;;;;;;;14.20;8.85;;;;;;;3.42;73.27;101261.50;1778870;80;21173;-74
2021/01/02 09:11:50;;;;;;;13.35;8.98;;;;;;;3.47;73.40;101261.75;1779986;80;21584;-75
2021/01/02 09:14:18;;;;;;;12.53;8.15;;;;;;;3.62;73.38;101261.16;1756022;80;21669;-74
2021/01/02 09:17:01;;;;;;;15.40;9.58;;;;;;;3.78;72.83;101273.73;1804366;78;21124;-72
2021/01/02 09:19:28;;;;;;;14.63;9.30;;;;;;;3.76;72.31;101273.94;1775896;79;21200;-74
2021/01/02 09:21:58;;;;;;;11.05;7.22;;;;;;;3.74;72.42;101275.94;1776634;80;21577;-74
2021/01/02 09:24:27;;;;;;;14.45;9.48;;;;;;;3.78;72.43;101277.69;1808906;79;21136;-74
2021/01/02 09:26:55;;;;;;;13.18;8.75;;;;;;;3.79;72.16;101274.88;1785015;80;21315;-74
2021/01/02 09:29:22;;;;;;;13.10;8.80;;;;;;;3.80;72.16;101277.81;1776651;79;21248;-73
2021/01/02 09:31:50;;;;;;;12.55;8.85;;;;;;;3.82;72.00;101273.16;1805373;78;21168;-73
2021/01/02 09:34:18;;;;;;;13.85;9.18;;;;;;;3.77;71.94;101272.91;1810250;79;21149;-74
2021/01/02 09:36:51;;;;;;;12.78;9.10;;;;;;;3.82;72.20;101270.52;1807340;78;21184;-76
2021/01/02 09:39:22;;;;;;;12.50;8.93;;;;;;;3.89;72.09;101274.02;1807379;78;21697;-78
2021/01/02 09:41:49;;;;;;;12.85;9.10;;;;;;;3.87;71.99;101266.77;1802144;79;21774;-73
2021/01/02 09:44:17;;;;;;;11.95;7.72;;;;;;;3.90;72.04;101278.27;1804896;77;22073;-74
2021/01/02 09:46:49;;;;;;;12.45;8.38;;;;;;;3.94;71.82;101273.41;1772785;79;21198;-73
2021/01/02 09:49:16;;;;;;;13.18;8.95;;;;;;;3.90;71.78;101273.50;1778568;80;21196;-73
2021/01/02 09:51:44;;;;;;;13.75;9.38;;;;;;;3.90;71.95;101272.98;1801193;77;21173;-73
2021/01/02 09:54:12;;;;;;;13.38;9.28;;;;;;;3.98;71.94;101272.84;1761309;79;21202;-73
2021/01/02 09:56:47;;;;;;;11.48;7.72;;;;;;;4.00;72.10;101273.45;1790385;78;22286;-74
2021/01/02 09:59:15;;;;;;;12.43;7.72;;;;;;;4.08;71.98;101269.84;1785609;79;21211;-73
2021/01/02 10:04:25;;;;;;;9.43;6.63;;;;;;;4.09;71.92;101270.14;1830458;77;22793;-74
2021/01/02 10:06:52;;;;;;;13.43;7.60;;;;;;;4.06;71.93;101275.82;1808356;78;21580;-72
2021/01/02 10:09:23;;;;;;;12.33;8.18;;;;;;;4.06;71.97;101277.14;1816633;78;21358;-73
2021/01/02 10:11:51;;;;;;;12.98;7.92;;;;;;;4.04;71.97;101278.34;1818798;77;21174;-74
2021/01/02 10:14:18;;;;;;;13.00;8.28;;;;;;;3.98;71.97;101279.45;1817926;78;21627;-73
2021/01/02 10:16:46;;;;;;;12.23;8.08;;;;;;;3.98;72.18;101274.16;1818219;78;21131;-73
2021/01/02 10:19:14;;;;;;;11.57;7.67;;;;;;;4.03;72.23;101268.80;1804209;78;21176;-73
2021/01/02 10:21:48;;;;;;;11.25;7.55;;;;;;;4.09;72.36;101273.30;1823410;77;21810;-73
2021/01/02 10:24:16;;;;;;;10.48;6.80;;;;;;;4.16;72.45;101270.98;1819125;78;21605;-72
2021/01/02 10:26:44;;;;;;;9.85;6.42;;;;;;;4.30;72.54;101269.20;1811144;77;21172;-72
2021/01/02 10:29:11;;;;;;;8.80;5.78;;;;;;;4.48;72.30;101271.31;1817447;77;21124;-73
2021/01/02 10:31:39;;;;;;;12.20;7.62;;;;;;;4.62;72.08;101266.88;1837144;75;21199;-73
2021/01/02 10:34:07;;;;;;;10.48;7.10;;;;;;;4.68;71.91;101274.82;1847532;76;22292;-73
2021/01/02 10:36:35;;;;;;;10.88;7.03;;;;;;;4.77;71.83;101282.56;1844846;77;21197;-72
2021/01/02 10:39:04;;;;;;;11.95;7.83;;;;;;;4.80;71.30;101287.45;1832269;76;21116;-72
2021/01/02 10:41:32;;;;;;;11.63;8.05;;;;;;;4.74;70.83;101289.09;1835754;76;21477;-72
2021/01/02 10:43:59;;;;;;;11.73;8.03;;;;;;;4.61;70.71;101297.81;1844741;76;21227;-71
2021/01/02 10:46:29;;;;;;;11.12;7.65;;;;;;;4.54;71.01;101299.62;1820283;77;21284;-71
2021/01/02 10:48:57;;;;;;;10.65;7.35;;;;;;;4.51;71.04;101288.59;1814857;77;21140;-73
2021/01/02 10:51:25;;;;;;;11.20;7.25;;;;;;;4.45;71.21;101284.42;1809183;78;21128;-72
2021/01/02 10:53:53;;;;;;;10.30;6.40;;;;;;;4.39;71.41;101288.37;1816865;77;21804;-73
2021/01/02 10:56:21;;;;;;;9.38;6.83;;;;;;;4.32;71.54;101287.53;1817301;77;21166;-72
2021/01/02 10:58:49;;;;;;;11.35;7.12;;;;;;;4.28;71.76;101287.59;1820267;77;22557;-73
2021/01/02 11:01:17;;;;;;;10.63;6.95;;;;;;;4.31;71.96;101284.08;1832944;77;21782;-72
2021/01/02 11:03:45;;;;;;;11.33;7.28;;;;;;;4.33;72.08;101284.68;1807269;77;21124;-72
2021/01/02 11:06:16;;;;;;;10.32;6.78;;;;;;;4.35;72.14;101282.66;1815644;77;21595;-73
2021/01/02 11:08:46;;;;;;;10.48;6.42;;;;;;;4.37;72.14;101285.91;1821052;78;21112;-73
2021/01/02 11:11:22;;;;;;;10.30;6.58;;;;;;;4.39;72.18;101285.72;1825090;78;21330;-73
2021/01/02 11:13:50;;;;;;;8.88;6.12;;;;;;;4.49;72.35;101284.84;1818472;77;21643;-72
2021/01/02 11:16:18;;;;;;;10.90;5.78;;;;;;;4.61;72.04;101287.73;1823015;78;21171;-72
2021/01/02 11:18:45;;;;;;;10.98;7.35;;;;;;;4.60;71.79;101289.55;1846038;76;21144;-73
2021/01/02 11:21:13;;;;;;;10.78;7.28;;;;;;;4.59;71.94;101287.92;1797720;78;21150;-74
2021/01/02 11:23:41;;;;;;;12.15;7.35;;;;;;;4.67;71.91;101282.95;1813418;77;21758;-73
2021/01/02 11:26:09;;;;;;;11.88;6.80;;;;;;;4.72;71.55;101291.11;1816241;78;21219;-73
2021/01/02 11:28:36;;;;;;;9.70;6.10;;;;;;;4.79;71.68;101293.77;1814311;78;21164;-73
2021/01/02 11:31:04;;;;;;;10.78;7.17;;;;;;;4.87;71.42;101294.41;1820139;78;21065;-73
2021/01/02 11:33:32;;;;;;;10.98;6.62;;;;;;;4.89;71.52;101300.30;1805939;77;21144;-72
2021/01/02 11:36:00;;;;;;;10.85;6.80;;;;;;;4.99;71.55;101301.23;1812837;78;21620;-72
2021/01/02 11:38:27;;;;;;;10.50;7.33;;;;;;;5.00;70.85;101297.59;1838945;77;21592;-72
2021/01/02 11:40:56;;;;;;;10.32;6.65;;;;;;;4.98;71.09;101299.62;1809387;78;21155;-72
2021/01/02 11:43:23;;;;;;;11.73;7.40;;;;;;;5.03;71.22;101297.16;1812121;78;21183;-74
2021/01/02 11:45:52;;;;;;;9.60;6.25;;;;;;;5.14;71.33;101301.06;1811499;78;21192;-75
2021/01/02 11:48:20;;;;;;;11.78;7.20;;;;;;;5.22;70.96;101298.20;1811499;78;21872;-74
2021/01/02 11:50:48;;;;;;;11.83;7.60;;;;;;;5.24;70.88;101298.83;1795072;78;21188;-73
2021/01/02 11:53:15;;;;;;;9.15;5.62;;;;;;;5.27;70.64;101300.27;1829616;77;21179;-73
2021/01/02 11:55:43;;;;;;;10.85;7.05;;;;;;;5.28;70.48;101297.91;1819241;78;21049;-73
2021/01/02 11:58:12;;;;;;;10.63;7.37;;;;;;;5.28;70.39;101300.56;1822153;77;21142;-73
2021/01/02 12:00:43;;;;;;;10.18;7.22;;;;;;;5.28;70.42;101305.34;1816668;77;21823;-72